sensor_id;sensor_type;location;lat;lon;timestamp;temperature;humidity
16966;DHT22;8599;47.852;12.070;2023-02-28T00:01:18;-0.90;99.90
16966;DHT22;8599;47.852;12.070;2023-02-28T00:03:45;-0.80;99.90
16966;DHT22;8599;47.852;12.070;2023-02-28T00:06:11;-0.90;99.90
16966;DHT22;8599;47.852;12.070;2023-02-28T00:08:38;-1.00;99.90
16966;DHT22;8599;47.852;12.070;2023-02-28T00:11:07;-1.00;99.90
16966;DHT22;8599;47.852;12.070;2023-02-28T00:13:38;-1.00;99.90
16966;DHT22;8599;47.852;12.070;2023-02-28T00:16:06;-1.00;99.90
16966;DHT22;8599;47.852;12.070;2023-02-28T00:18:34;-1.00;99.90
16966;DHT22;8599;47.852;12.070;2023-02-28T00:21:01;-1.00;99.90
16966;DHT22;8599;47.852;12.070;2023-02-28T00:23:28;-1.00;99.90
16966;DHT22;8599;47.852;12.070;2023-02-28T00:25:55;-1.00;99.90
16966;DHT22;8599;47.852;12.070;2023-02-28T00:28:23;-1.00;99.90
16966;DHT22;8599;47.852;12.070;2023-02-28T00:30:51;-0.90;99.90
16966;DHT22;8599;47.852;12.070;2023-02-28T00:33:18;-0.90;99.90
16966;DHT22;8599;47.852;12.070;2023-02-28T00:35:45;-1.00;99.90
16966;DHT22;8599;47.852;12.070;2023-02-28T00:38:12;-1.00;99.90
16966;DHT22;8599;47.852;12.070;2023-02-28T00:40:39;-1.00;99.90
16966;DHT22;8599;47.852;12.070;2023-02-28T00:43:06;-1.00;99.90
16966;DHT22;8599;47.852;12.070;2023-02-28T00:45:32;-1.10;99.90
16966;DHT22;8599;47.852;12.070;2023-02-28T00:48:01;-1.10;99.90
16966;DHT22;8599;47.852;12.070;2023-02-28T00:50:28;-1.10;99.90
16966;DHT22;8599;47.852;12.070;2023-02-28T00:52:55;-1.20;99.90
16966;DHT22;8599;47.852;12.070;2023-02-28T00:55:21;-1.10;99.90
16966;DHT22;8599;47.852;12.070;2023-02-28T00:57:48;-1.00;99.90
16966;DHT22;8599;47.852;12.070;2023-02-28T01:00:15;-1.00;99.90
16966;DHT22;8599;47.852;12.070;2023-02-28T01:02:42;-1.10;99.90
16966;DHT22;8599;47.852;12.070;2023-02-28T01:05:10;-1.10;99.90
16966;DHT22;8599;47.852;12.070;2023-02-28T01:07:37;-1.00;99.90
16966;DHT22;8599;47.852;12.070;2023-02-28T01:10:05;-1.10;99.90
16966;DHT22;8599;47.852;12.070;2023-02-28T01:12:32;-1.10;99.90
16966;DHT22;8599;47.852;12.070;2023-02-28T01:14:59;-1.20;99.90
16966;DHT22;8599;47.852;12.070;2023-02-28T01:17:26;-1.40;99.90
16966;DHT22;8599;47.852;12.070;2023-02-28T01:19:53;-1.40;99.90
16966;DHT22;8599;47.852;12.070;2023-02-28T01:22:22;-1.50;99.90
16966;DHT22;8599;47.852;12.070;2023-02-28T01:24:48;-1.50;99.90
16966;DHT22;8599;47.852;12.070;2023-02-28T01:27:15;-1.60;99.90
16966;DHT22;8599;47.852;12.070;2023-02-28T01:29:42;-1.50;99.90
16966;DHT22;8599;47.852;12.070;2023-02-28T01:32:09;-1.50;99.90
16966;DHT22;8599;47.852;12.070;2023-02-28T01:34:36;-1.40;99.90
16966;DHT22;8599;47.852;12.070;2023-02-28T01:37:02;-1.40;99.90
16966;DHT22;8599;47.852;12.070;2023-02-28T01:39:31;-1.40;99.90
16966;DHT22;8599;47.852;12.070;2023-02-28T01:41:57;-1.40;99.90
16966;DHT22;8599;47.852;12.070;2023-02-28T01:44:57;-1.50;99.90
16966;DHT22;8599;47.852;12.070;2023-02-28T01:47:27;-1.60;99.90
16966;DHT22;8599;47.852;12.070;2023-02-28T01:49:54;-1.80;99.90
16966;DHT22;8599;47.852;12.070;2023-02-28T01:52:22;-1.80;99.90
16966;DHT22;8599;47.852;12.070;2023-02-28T01:54:54;-1.70;99.90
16966;DHT22;8599;47.852;12.070;2023-02-28T01:57:24;-1.80;99.90
16966;DHT22;8599;47.852;12.070;2023-02-28T01:59:57;-1.70;99.90
16966;DHT22;8599;47.852;12.070;2023-02-28T02:02:25;-1.80;99.90
16966;DHT22;8599;47.852;12.070;2023-02-28T02:04:56;-1.70;99.90
16966;DHT22;8599;47.852;12.070;2023-02-28T02:07:25;-1.80;99.90
16966;DHT22;8599;47.852;12.070;2023-02-28T02:10:02;-1.80;99.90
16966;DHT22;8599;47.852;12.070;2023-02-28T02:12:44;-1.80;99.90
16966;DHT22;8599;47.852;12.070;2023-02-28T02:15:17;-1.80;99.90
16966;DHT22;8599;47.852;12.070;2023-02-28T02:17:49;-1.80;99.90
16966;DHT22;8599;47.852;12.070;2023-02-28T02:20:44;-1.80;99.90
16966;DHT22;8599;47.852;12.070;2023-02-28T02:23:48;-1.70;99.90
16966;DHT22;8599;47.852;12.070;2023-02-28T02:26:42;-1.70;99.90
16966;DHT22;8599;47.852;12.070;2023-02-28T02:29:35;-1.60;99.90
16966;DHT22;8599;47.852;12.070;2023-02-28T02:32:26;-1.80;99.90
16966;DHT22;8599;47.852;12.070;2023-02-28T02:35:01;-1.80;99.90
16966;DHT22;8599;47.852;12.070;2023-02-28T02:37:37;-1.90;99.90
16966;DHT22;8599;47.852;12.070;2023-02-28T02:40:11;-2.10;99.90
16966;DHT22;8599;47.852;12.070;2023-02-28T02:42:44;-2.10;99.90
16966;DHT22;8599;47.852;12.070;2023-02-28T02:45:17;-2.20;99.90
16966;DHT22;8599;47.852;12.070;2023-02-28T02:47:46;-2.10;99.90
16966;DHT22;8599;47.852;12.070;2023-02-28T02:50:18;-2.00;99.90
16966;DHT22;8599;47.852;12.070;2023-02-28T02:52:49;-2.10;99.90
16966;DHT22;8599;47.852;12.070;2023-02-28T02:55:18;-2.10;99.90
16966;DHT22;8599;47.852;12.070;2023-02-28T02:57:50;-1.90;99.90
16966;DHT22;8599;47.852;12.070;2023-02-28T03:00:22;-1.80;99.90
16966;DHT22;8599;47.852;12.070;2023-02-28T03:02:51;-1.90;99.90
16966;DHT22;8599;47.852;12.070;2023-02-28T03:05:24;-1.90;99.90
16966;DHT22;8599;47.852;12.070;2023-02-28T03:07:52;-1.80;99.90
16966;DHT22;8599;47.852;12.070;2023-02-28T03:10:31;-2.00;99.90
16966;DHT22;8599;47.852;12.070;2023-02-28T03:16:41;-2.30;99.90
16966;DHT22;8599;47.852;12.070;2023-02-28T03:19:32;-2.50;99.90
16966;DHT22;8599;47.852;12.070;2023-02-28T03:22:21;-2.40;99.90
16966;DHT22;8599;47.852;12.070;2023-02-28T03:24:56;-2.40;99.90
16966;DHT22;8599;47.852;12.070;2023-02-28T03:27:27;-2.40;99.90
16966;DHT22;8599;47.852;12.070;2023-02-28T03:30:00;-2.40;99.90
16966;DHT22;8599;47.852;12.070;2023-02-28T03:32:33;-2.30;99.90
16966;DHT22;8599;47.852;12.070;2023-02-28T03:35:05;-2.40;99.90
16966;DHT22;8599;47.852;12.070;2023-02-28T03:37:38;-2.50;99.90
16966;DHT22;8599;47.852;12.070;2023-02-28T03:40:09;-2.50;99.90
16966;DHT22;8599;47.852;12.070;2023-02-28T03:42:41;-2.60;99.90
16966;DHT22;8599;47.852;12.070;2023-02-28T03:45:12;-2.50;99.90
16966;DHT22;8599;47.852;12.070;2023-02-28T03:47:43;-2.50;99.90
16966;DHT22;8599;47.852;12.070;2023-02-28T03:50:17;-2.40;99.90
16966;DHT22;8599;47.852;12.070;2023-02-28T03:52:50;-2.40;99.90
16966;DHT22;8599;47.852;12.070;2023-02-28T03:55:18;-2.40;99.90
16966;DHT22;8599;47.852;12.070;2023-02-28T03:57:53;-2.40;99.90
16966;DHT22;8599;47.852;12.070;2023-02-28T04:00:28;-2.40;99.90
16966;DHT22;8599;47.852;12.070;2023-02-28T04:02:56;-2.40;99.90
16966;DHT22;8599;47.852;12.070;2023-02-28T04:05:24;-2.40;99.90
16966;DHT22;8599;47.852;12.070;2023-02-28T04:07:52;-2.30;99.90
16966;DHT22;8599;47.852;12.070;2023-02-28T04:10:20;-2.30;99.90
16966;DHT22;8599;47.852;12.070;2023-02-28T04:12:46;-2.30;99.90
16966;DHT22;8599;47.852;12.070;2023-02-28T04:15:13;-2.40;99.90
16966;DHT22;8599;47.852;12.070;2023-02-28T04:17:40;-2.30;99.90
16966;DHT22;8599;47.852;12.070;2023-02-28T04:20:08;-2.40;99.90
16966;DHT22;8599;47.852;12.070;2023-02-28T04:22:36;-2.40;99.90
16966;DHT22;8599;47.852;12.070;2023-02-28T04:25:06;-2.40;99.90
16966;DHT22;8599;47.852;12.070;2023-02-28T04:27:33;-2.40;99.90
16966;DHT22;8599;47.852;12.070;2023-02-28T04:29:59;-2.40;99.90
16966;DHT22;8599;47.852;12.070;2023-02-28T04:32:26;-2.50;99.90
16966;DHT22;8599;47.852;12.070;2023-02-28T04:34:53;-2.60;99.90
16966;DHT22;8599;47.852;12.070;2023-02-28T04:37:20;-2.60;99.90
16966;DHT22;8599;47.852;12.070;2023-02-28T04:39:53;-2.70;99.90
16966;DHT22;8599;47.852;12.070;2023-02-28T04:42:21;-2.90;99.90
16966;DHT22;8599;47.852;12.070;2023-02-28T04:44:48;-2.90;99.90
16966;DHT22;8599;47.852;12.070;2023-02-28T04:47:15;-3.10;99.90
16966;DHT22;8599;47.852;12.070;2023-02-28T04:49:42;-3.00;99.90
16966;DHT22;8599;47.852;12.070;2023-02-28T04:52:08;-3.00;99.90
16966;DHT22;8599;47.852;12.070;2023-02-28T04:54:35;-2.90;99.90
16966;DHT22;8599;47.852;12.070;2023-02-28T04:57:04;-2.80;99.90
16966;DHT22;8599;47.852;12.070;2023-02-28T04:59:32;-2.80;99.90
16966;DHT22;8599;47.852;12.070;2023-02-28T05:01:59;-2.80;99.90
16966;DHT22;8599;47.852;12.070;2023-02-28T05:04:29;-2.80;99.90
16966;DHT22;8599;47.852;12.070;2023-02-28T05:06:59;-2.90;99.90
16966;DHT22;8599;47.852;12.070;2023-02-28T05:09:26;-3.00;99.90
16966;DHT22;8599;47.852;12.070;2023-02-28T05:11:53;-3.10;99.90
16966;DHT22;8599;47.852;12.070;2023-02-28T05:14:20;-3.20;99.90
16966;DHT22;8599;47.852;12.070;2023-02-28T05:16:48;-3.30;99.90
16966;DHT22;8599;47.852;12.070;2023-02-28T05:19:15;-3.40;99.90
16966;DHT22;8599;47.852;12.070;2023-02-28T05:21:49;-3.30;99.90
16966;DHT22;8599;47.852;12.070;2023-02-28T05:24:17;-3.20;99.90
16966;DHT22;8599;47.852;12.070;2023-02-28T05:26:48;-3.10;99.90
16966;DHT22;8599;47.852;12.070;2023-02-28T05:29:15;-3.10;99.90
16966;DHT22;8599;47.852;12.070;2023-02-28T05:31:42;-3.00;99.90
16966;DHT22;8599;47.852;12.070;2023-02-28T05:34:10;-3.10;99.90
16966;DHT22;8599;47.852;12.070;2023-02-28T05:36:38;-3.10;99.90
16966;DHT22;8599;47.852;12.070;2023-02-28T05:39:06;-3.10;99.90
16966;DHT22;8599;47.852;12.070;2023-02-28T05:41:38;-3.10;99.90
16966;DHT22;8599;47.852;12.070;2023-02-28T05:44:05;-3.10;99.90
16966;DHT22;8599;47.852;12.070;2023-02-28T05:46:32;-3.10;99.90
16966;DHT22;8599;47.852;12.070;2023-02-28T05:48:59;-3.00;99.90
16966;DHT22;8599;47.852;12.070;2023-02-28T05:51:27;-2.90;99.90
16966;DHT22;8599;47.852;12.070;2023-02-28T05:53:54;-2.90;99.90
16966;DHT22;8599;47.852;12.070;2023-02-28T05:56:24;-2.80;99.90
16966;DHT22;8599;47.852;12.070;2023-02-28T05:58:51;-2.70;99.90
16966;DHT22;8599;47.852;12.070;2023-02-28T06:01:24;-2.70;99.90
16966;DHT22;8599;47.852;12.070;2023-02-28T06:03:51;-2.70;99.90
16966;DHT22;8599;47.852;12.070;2023-02-28T06:06:18;-2.70;99.90
16966;DHT22;8599;47.852;12.070;2023-02-28T06:08:46;-2.60;99.90
16966;DHT22;8599;47.852;12.070;2023-02-28T06:11:14;-2.60;99.90
16966;DHT22;8599;47.852;12.070;2023-02-28T06:13:41;-2.60;99.90
16966;DHT22;8599;47.852;12.070;2023-02-28T06:16:08;-2.60;99.90
16966;DHT22;8599;47.852;12.070;2023-02-28T06:18:36;-2.60;99.90
16966;DHT22;8599;47.852;12.070;2023-02-28T06:21:03;-2.50;99.90
16966;DHT22;8599;47.852;12.070;2023-02-28T06:23:30;-2.50;99.90
16966;DHT22;8599;47.852;12.070;2023-02-28T06:25:59;-2.40;99.90
16966;DHT22;8599;47.852;12.070;2023-02-28T06:28:25;-2.40;99.90
16966;DHT22;8599;47.852;12.070;2023-02-28T06:30:52;-2.30;99.90
16966;DHT22;8599;47.852;12.070;2023-02-28T06:33:19;-2.30;99.90
16966;DHT22;8599;47.852;12.070;2023-02-28T06:35:47;-2.20;99.90
16966;DHT22;8599;47.852;12.070;2023-02-28T06:38:14;-2.20;99.90
16966;DHT22;8599;47.852;12.070;2023-02-28T06:40:41;-2.10;99.90
16966;DHT22;8599;47.852;12.070;2023-02-28T06:43:10;-2.20;99.90
16966;DHT22;8599;47.852;12.070;2023-02-28T06:45:41;-2.20;99.90
16966;DHT22;8599;47.852;12.070;2023-02-28T06:48:09;-2.10;99.90
16966;DHT22;8599;47.852;12.070;2023-02-28T06:50:36;-2.20;99.90
16966;DHT22;8599;47.852;12.070;2023-02-28T06:53:02;-2.20;99.90
16966;DHT22;8599;47.852;12.070;2023-02-28T06:55:29;-2.30;99.90
16966;DHT22;8599;47.852;12.070;2023-02-28T06:57:56;-2.40;99.90
16966;DHT22;8599;47.852;12.070;2023-02-28T07:00:25;-2.50;99.90
16966;DHT22;8599;47.852;12.070;2023-02-28T07:02:52;-2.50;99.90
16966;DHT22;8599;47.852;12.070;2023-02-28T07:05:20;-2.50;99.90
16966;DHT22;8599;47.852;12.070;2023-02-28T07:07:47;-2.40;99.90
16966;DHT22;8599;47.852;12.070;2023-02-28T07:10:14;-2.30;99.90
16966;DHT22;8599;47.852;12.070;2023-02-28T07:12:42;-2.30;99.90
16966;DHT22;8599;47.852;12.070;2023-02-28T07:15:10;-2.10;99.90
16966;DHT22;8599;47.852;12.070;2023-02-28T07:17:38;-2.10;99.90
16966;DHT22;8599;47.852;12.070;2023-02-28T07:20:06;-2.20;99.90
16966;DHT22;8599;47.852;12.070;2023-02-28T07:22:33;-2.20;99.90
16966;DHT22;8599;47.852;12.070;2023-02-28T07:25:00;-2.10;99.90
16966;DHT22;8599;47.852;12.070;2023-02-28T07:27:26;-2.00;99.90
16966;DHT22;8599;47.852;12.070;2023-02-28T07:29:53;-2.10;99.90
16966;DHT22;8599;47.852;12.070;2023-02-28T07:32:20;-2.10;99.90
16966;DHT22;8599;47.852;12.070;2023-02-28T07:34:48;-2.00;99.90
16966;DHT22;8599;47.852;12.070;2023-02-28T07:37:15;-1.90;99.90
16966;DHT22;8599;47.852;12.070;2023-02-28T07:39:42;-1.80;99.90
16966;DHT22;8599;47.852;12.070;2023-02-28T07:42:08;-1.70;99.90
16966;DHT22;8599;47.852;12.070;2023-02-28T07:44:37;-1.60;99.90
16966;DHT22;8599;47.852;12.070;2023-02-28T07:47:06;-1.60;99.90
16966;DHT22;8599;47.852;12.070;2023-02-28T07:49:34;-1.50;99.90
16966;DHT22;8599;47.852;12.070;2023-02-28T07:52:03;-1.40;99.90
16966;DHT22;8599;47.852;12.070;2023-02-28T07:54:31;-1.30;99.90
16966;DHT22;8599;47.852;12.070;2023-02-28T07:56:58;-1.20;99.90
16966;DHT22;8599;47.852;12.070;2023-02-28T07:59:25;-1.30;99.90
16966;DHT22;8599;47.852;12.070;2023-02-28T08:01:52;-1.40;99.90
16966;DHT22;8599;47.852;12.070;2023-02-28T08:04:19;-1.30;99.90
16966;DHT22;8599;47.852;12.070;2023-02-28T08:06:46;-1.20;99.90
16966;DHT22;8599;47.852;12.070;2023-02-28T08:09:14;-1.10;99.90
16966;DHT22;8599;47.852;12.070;2023-02-28T08:11:41;-1.00;99.90
16966;DHT22;8599;47.852;12.070;2023-02-28T08:14:08;-0.90;99.90
16966;DHT22;8599;47.852;12.070;2023-02-28T08:16:34;-0.80;99.90
16966;DHT22;8599;47.852;12.070;2023-02-28T08:19:01;-0.80;99.90
16966;DHT22;8599;47.852;12.070;2023-02-28T08:21:28;-0.90;99.90
16966;DHT22;8599;47.852;12.070;2023-02-28T08:23:55;-0.70;99.90
16966;DHT22;8599;47.852;12.070;2023-02-28T08:26:23;-0.70;99.90
16966;DHT22;8599;47.852;12.070;2023-02-28T08:28:50;-0.60;99.90
16966;DHT22;8599;47.852;12.070;2023-02-28T08:31:18;-0.50;99.90
16966;DHT22;8599;47.852;12.070;2023-02-28T08:33:45;-0.50;99.90
16966;DHT22;8599;47.852;12.070;2023-02-28T08:36:14;-0.70;99.90
16966;DHT22;8599;47.852;12.070;2023-02-28T08:38:41;-0.60;99.90
16966;DHT22;8599;47.852;12.070;2023-02-28T08:41:10;-0.50;99.90
16966;DHT22;8599;47.852;12.070;2023-02-28T08:43:39;-0.40;99.90
16966;DHT22;8599;47.852;12.070;2023-02-28T08:46:06;-0.40;99.90
16966;DHT22;8599;47.852;12.070;2023-02-28T08:48:34;-0.60;99.90
16966;DHT22;8599;47.852;12.070;2023-02-28T08:51:05;-0.90;99.90
16966;DHT22;8599;47.852;12.070;2023-02-28T08:53:32;-1.00;99.90
16966;DHT22;8599;47.852;12.070;2023-02-28T08:56:00;-0.90;99.90
16966;DHT22;8599;47.852;12.070;2023-02-28T08:58:28;-0.80;99.90
16966;DHT22;8599;47.852;12.070;2023-02-28T09:00:56;-0.70;99.90
16966;DHT22;8599;47.852;12.070;2023-02-28T09:03:23;-0.60;99.90
16966;DHT22;8599;47.852;12.070;2023-02-28T09:05:57;-0.80;99.90
16966;DHT22;8599;47.852;12.070;2023-02-28T09:08:25;-0.80;99.90
16966;DHT22;8599;47.852;12.070;2023-02-28T09:10:52;-0.80;99.90
16966;DHT22;8599;47.852;12.070;2023-02-28T09:13:20;-0.70;99.90
16966;DHT22;8599;47.852;12.070;2023-02-28T09:15:47;-0.70;99.90
16966;DHT22;8599;47.852;12.070;2023-02-28T09:18:15;-0.60;99.90
16966;DHT22;8599;47.852;12.070;2023-02-28T09:20:43;-0.50;99.90
16966;DHT22;8599;47.852;12.070;2023-02-28T09:23:11;-0.40;99.90
16966;DHT22;8599;47.852;12.070;2023-02-28T09:25:44;-0.40;99.90
16966;DHT22;8599;47.852;12.070;2023-02-28T09:28:11;-0.30;99.90
16966;DHT22;8599;47.852;12.070;2023-02-28T09:30:39;-0.20;99.90
16966;DHT22;8599;47.852;12.070;2023-02-28T09:33:06;-0.20;99.90
16966;DHT22;8599;47.852;12.070;2023-02-28T09:35:34;-0.20;99.90
16966;DHT22;8599;47.852;12.070;2023-02-28T09:38:03;-0.20;99.90
16966;DHT22;8599;47.852;12.070;2023-02-28T09:40:30;0.00;99.90
16966;DHT22;8599;47.852;12.070;2023-02-28T09:42:59;-0.10;99.90
16966;DHT22;8599;47.852;12.070;2023-02-28T09:45:30;-0.20;99.90
16966;DHT22;8599;47.852;12.070;2023-02-28T09:48:01;-0.20;99.90
16966;DHT22;8599;47.852;12.070;2023-02-28T09:50:32;-0.30;99.90
16966;DHT22;8599;47.852;12.070;2023-02-28T09:53:06;-0.30;99.90
16966;DHT22;8599;47.852;12.070;2023-02-28T09:55:41;-0.20;99.90
16966;DHT22;8599;47.852;12.070;2023-02-28T09:58:18;-0.10;99.90
16966;DHT22;8599;47.852;12.070;2023-02-28T10:00:53;-0.10;99.90
16966;DHT22;8599;47.852;12.070;2023-02-28T10:03:29;0.00;99.90
16966;DHT22;8599;47.852;12.070;2023-02-28T10:06:00;0.10;99.90
16966;DHT22;8599;47.852;12.070;2023-02-28T10:08:36;0.00;99.90
16966;DHT22;8599;47.852;12.070;2023-02-28T10:11:07;0.00;99.90
16966;DHT22;8599;47.852;12.070;2023-02-28T10:13:51;0.10;99.90
16966;DHT22;8599;47.852;12.070;2023-02-28T10:16:24;0.10;99.90
16966;DHT22;8599;47.852;12.070;2023-02-28T10:19:04;-0.10;99.90
16966;DHT22;8599;47.852;12.070;2023-02-28T10:21:36;-0.10;99.90
16966;DHT22;8599;47.852;12.070;2023-02-28T10:24:14;-0.10;99.90
16966;DHT22;8599;47.852;12.070;2023-02-28T10:26:44;-0.10;99.90
16966;DHT22;8599;47.852;12.070;2023-02-28T10:29:11;-0.30;99.90
16966;DHT22;8599;47.852;12.070;2023-02-28T10:31:38;-0.30;99.90
16966;DHT22;8599;47.852;12.070;2023-02-28T10:34:05;-0.20;99.90
16966;DHT22;8599;47.852;12.070;2023-02-28T10:36:32;-0.10;99.90
16966;DHT22;8599;47.852;12.070;2023-02-28T10:38:59;0.00;99.90
16966;DHT22;8599;47.852;12.070;2023-02-28T10:41:29;0.00;99.90
16966;DHT22;8599;47.852;12.070;2023-02-28T10:44:15;0.00;99.90
16966;DHT22;8599;47.852;12.070;2023-02-28T10:46:44;-0.10;99.90
16966;DHT22;8599;47.852;12.070;2023-02-28T10:49:14;-0.10;99.90
16966;DHT22;8599;47.852;12.070;2023-02-28T10:51:43;-0.20;99.90
16966;DHT22;8599;47.852;12.070;2023-02-28T10:54:19;-0.20;99.90
16966;DHT22;8599;47.852;12.070;2023-02-28T10:57:06;-0.10;99.90
16966;DHT22;8599;47.852;12.070;2023-02-28T10:59:34;0.10;99.90
16966;DHT22;8599;47.852;12.070;2023-02-28T11:02:01;0.20;99.90
16966;DHT22;8599;47.852;12.070;2023-02-28T11:04:37;0.40;99.90
16966;DHT22;8599;47.852;12.070;2023-02-28T11:07:11;0.40;99.90
16966;DHT22;8599;47.852;12.070;2023-02-28T11:09:45;0.40;99.90
16966;DHT22;8599;47.852;12.070;2023-02-28T11:12:22;0.30;99.90
16966;DHT22;8599;47.852;12.070;2023-02-28T11:14:52;0.30;99.90
16966;DHT22;8599;47.852;12.070;2023-02-28T11:17:21;0.40;99.90
16966;DHT22;8599;47.852;12.070;2023-02-28T11:19:52;0.20;99.90
16966;DHT22;8599;47.852;12.070;2023-02-28T11:22:21;0.30;99.90
16966;DHT22;8599;47.852;12.070;2023-02-28T11:24:52;0.50;99.90
16966;DHT22;8599;47.852;12.070;2023-02-28T11:27:43;0.50;99.90
16966;DHT22;8599;47.852;12.070;2023-02-28T11:30:32;0.60;99.90
16966;DHT22;8599;47.852;12.070;2023-02-28T11:33:01;0.70;99.90
16966;DHT22;8599;47.852;12.070;2023-02-28T11:35:45;0.80;99.90
16966;DHT22;8599;47.852;12.070;2023-02-28T11:38:13;0.70;99.90
16966;DHT22;8599;47.852;12.070;2023-02-28T11:40:45;0.60;99.90
16966;DHT22;8599;47.852;12.070;2023-02-28T11:43:23;0.60;99.90
16966;DHT22;8599;47.852;12.070;2023-02-28T11:46:10;0.60;99.90
16966;DHT22;8599;47.852;12.070;2023-02-28T11:48:45;0.60;99.90
16966;DHT22;8599;47.852;12.070;2023-02-28T11:51:20;0.50;99.90
16966;DHT22;8599;47.852;12.070;2023-02-28T11:54:02;0.60;99.90
16966;DHT22;8599;47.852;12.070;2023-02-28T11:56:35;0.70;99.90
16966;DHT22;8599;47.852;12.070;2023-02-28T11:59:14;0.70;99.90
16966;DHT22;8599;47.852;12.070;2023-02-28T12:02:09;0.70;99.90
16966;DHT22;8599;47.852;12.070;2023-02-28T12:04:51;0.90;99.90
16966;DHT22;8599;47.852;12.070;2023-02-28T12:07:27;1.00;99.90
16966;DHT22;8599;47.852;12.070;2023-02-28T12:10:04;1.20;99.90
16966;DHT22;8599;47.852;12.070;2023-02-28T12:12:41;1.30;99.90
16966;DHT22;8599;47.852;12.070;2023-02-28T12:15:29;1.50;99.90
16966;DHT22;8599;47.852;12.070;2023-02-28T12:18:12;1.60;99.90
16966;DHT22;8599;47.852;12.070;2023-02-28T12:20:45;1.90;99.90
16966;DHT22;8599;47.852;12.070;2023-02-28T12:23:27;2.10;99.90
16966;DHT22;8599;47.852;12.070;2023-02-28T12:26:04;2.20;99.90
16966;DHT22;8599;47.852;12.070;2023-02-28T12:28:39;2.30;99.90
16966;DHT22;8599;47.852;12.070;2023-02-28T12:31:15;2.30;99.90
16966;DHT22;8599;47.852;12.070;2023-02-28T12:33:46;2.10;99.90
16966;DHT22;8599;47.852;12.070;2023-02-28T12:36:16;2.20;99.90
16966;DHT22;8599;47.852;12.070;2023-02-28T12:38:50;2.30;99.90
16966;DHT22;8599;47.852;12.070;2023-02-28T12:41:19;2.40;99.90
16966;DHT22;8599;47.852;12.070;2023-02-28T12:43:53;2.60;99.90
16966;DHT22;8599;47.852;12.070;2023-02-28T12:46:25;2.60;99.90
16966;DHT22;8599;47.852;12.070;2023-02-28T12:48:56;2.60;99.90
16966;DHT22;8599;47.852;12.070;2023-02-28T12:51:24;2.70;99.90
16966;DHT22;8599;47.852;12.070;2023-02-28T12:53:58;2.80;99.90
16966;DHT22;8599;47.852;12.070;2023-02-28T12:56:35;2.80;99.90
16966;DHT22;8599;47.852;12.070;2023-02-28T12:59:13;2.70;99.90
16966;DHT22;8599;47.852;12.070;2023-02-28T13:02:02;2.90;99.90
16966;DHT22;8599;47.852;12.070;2023-02-28T13:05:00;2.90;99.90
16966;DHT22;8599;47.852;12.070;2023-02-28T13:10:48;2.70;99.90
16966;DHT22;8599;47.852;12.070;2023-02-28T13:13:21;2.60;99.90
16966;DHT22;8599;47.852;12.070;2023-02-28T13:16:00;2.60;99.90
16966;DHT22;8599;47.852;12.070;2023-02-28T13:18:31;2.80;99.90
16966;DHT22;8599;47.852;12.070;2023-02-28T13:21:00;3.00;99.90
16966;DHT22;8599;47.852;12.070;2023-02-28T13:23:58;3.30;99.90
16966;DHT22;8599;47.852;12.070;2023-02-28T13:29:31;3.30;99.90
16966;DHT22;8599;47.852;12.070;2023-02-28T13:38:15;3.70;99.90
16966;DHT22;8599;47.852;12.070;2023-02-28T13:40:41;4.00;99.90
16966;DHT22;8599;47.852;12.070;2023-02-28T13:43:09;4.00;99.90
16966;DHT22;8599;47.852;12.070;2023-02-28T13:45:35;4.10;99.90
16966;DHT22;8599;47.852;12.070;2023-02-28T13:48:15;3.90;99.90
16966;DHT22;8599;47.852;12.070;2023-02-28T13:50:44;4.00;99.90
16966;DHT22;8599;47.852;12.070;2023-02-28T13:53:32;4.00;99.90
16966;DHT22;8599;47.852;12.070;2023-02-28T13:56:05;4.30;99.90
16966;DHT22;8599;47.852;12.070;2023-02-28T13:58:46;4.60;99.90
16966;DHT22;8599;47.852;12.070;2023-02-28T14:01:28;5.00;99.90
16966;DHT22;8599;47.852;12.070;2023-02-28T14:06:54;4.80;99.90
16966;DHT22;8599;47.852;12.070;2023-02-28T14:09:24;4.70;99.90
16966;DHT22;8599;47.852;12.070;2023-02-28T14:11:52;4.70;99.90
16966;DHT22;8599;47.852;12.070;2023-02-28T14:14:53;4.50;99.90
16966;DHT22;8599;47.852;12.070;2023-02-28T14:17:21;4.40;99.90
16966;DHT22;8599;47.852;12.070;2023-02-28T14:19:48;4.40;99.90
16966;DHT22;8599;47.852;12.070;2023-02-28T14:22:41;4.40;99.90
16966;DHT22;8599;47.852;12.070;2023-02-28T14:25:16;3.60;99.90
16966;DHT22;8599;47.852;12.070;2023-02-28T14:27:48;3.50;99.90
16966;DHT22;8599;47.852;12.070;2023-02-28T14:33:31;3.20;99.90
16966;DHT22;8599;47.852;12.070;2023-02-28T14:36:06;3.10;99.90
16966;DHT22;8599;47.852;12.070;2023-02-28T14:38:36;3.00;99.90
16966;DHT22;8599;47.852;12.070;2023-02-28T14:41:20;3.00;99.90
16966;DHT22;8599;47.852;12.070;2023-02-28T14:43:55;3.00;99.90
16966;DHT22;8599;47.852;12.070;2023-02-28T14:46:25;3.10;99.90
16966;DHT22;8599;47.852;12.070;2023-02-28T14:48:54;3.30;99.90
16966;DHT22;8599;47.852;12.070;2023-02-28T14:51:22;3.60;99.90
16966;DHT22;8599;47.852;12.070;2023-02-28T14:53:57;3.50;99.90
16966;DHT22;8599;47.852;12.070;2023-02-28T14:56:27;3.60;99.90
16966;DHT22;8599;47.852;12.070;2023-02-28T14:58:56;3.70;99.90
16966;DHT22;8599;47.852;12.070;2023-02-28T15:01:25;3.80;99.90
16966;DHT22;8599;47.852;12.070;2023-02-28T15:04:01;4.10;99.90
16966;DHT22;8599;47.852;12.070;2023-02-28T15:06:29;4.30;99.90
16966;DHT22;8599;47.852;12.070;2023-02-28T15:09:16;4.10;99.90
16966;DHT22;8599;47.852;12.070;2023-02-28T15:11:47;4.10;99.90
16966;DHT22;8599;47.852;12.070;2023-02-28T15:14:17;4.20;99.90
16966;DHT22;8599;47.852;12.070;2023-02-28T15:16:47;4.10;99.90
16966;DHT22;8599;47.852;12.070;2023-02-28T15:19:20;4.10;99.90
16966;DHT22;8599;47.852;12.070;2023-02-28T15:21:50;4.00;99.90
16966;DHT22;8599;47.852;12.070;2023-02-28T15:24:23;4.20;99.90
16966;DHT22;8599;47.852;12.070;2023-02-28T15:26:54;4.70;99.90
16966;DHT22;8599;47.852;12.070;2023-02-28T15:29:25;5.10;99.90
16966;DHT22;8599;47.852;12.070;2023-02-28T15:31:57;5.40;99.90
16966;DHT22;8599;47.852;12.070;2023-02-28T15:34:29;5.30;99.90
16966;DHT22;8599;47.852;12.070;2023-02-28T15:37:00;5.20;99.90
16966;DHT22;8599;47.852;12.070;2023-02-28T15:39:29;5.00;99.90
16966;DHT22;8599;47.852;12.070;2023-02-28T15:42:10;4.90;99.90
16966;DHT22;8599;47.852;12.070;2023-02-28T15:44:37;4.60;99.90
16966;DHT22;8599;47.852;12.070;2023-02-28T15:47:06;4.50;99.90
16966;DHT22;8599;47.852;12.070;2023-02-28T15:49:44;4.30;99.90
16966;DHT22;8599;47.852;12.070;2023-02-28T15:52:14;4.30;99.90
16966;DHT22;8599;47.852;12.070;2023-02-28T15:54:44;4.20;99.90
16966;DHT22;8599;47.852;12.070;2023-02-28T15:57:15;4.00;99.90
16966;DHT22;8599;47.852;12.070;2023-02-28T15:59:49;3.80;99.90
16966;DHT22;8599;47.852;12.070;2023-02-28T16:02:19;3.60;99.90
16966;DHT22;8599;47.852;12.070;2023-02-28T16:05:12;3.40;99.90
16966;DHT22;8599;47.852;12.070;2023-02-28T16:07:43;3.30;99.90
16966;DHT22;8599;47.852;12.070;2023-02-28T16:10:13;3.10;99.90
16966;DHT22;8599;47.852;12.070;2023-02-28T16:12:41;3.10;99.90
16966;DHT22;8599;47.852;12.070;2023-02-28T16:15:18;2.90;99.90
16966;DHT22;8599;47.852;12.070;2023-02-28T16:17:45;3.00;99.90
16966;DHT22;8599;47.852;12.070;2023-02-28T16:20:13;2.90;99.90
16966;DHT22;8599;47.852;12.070;2023-02-28T16:22:41;2.90;99.90